createdAt,value
2022-08-17T00:00:09.156Z,100513.31
2022-08-17T00:02:59.687Z,100507.41
2022-08-17T00:05:29.021Z,100510.16
2022-08-17T00:07:56.558Z,100508.47
2022-08-17T00:10:23.586Z,100509.72
2022-08-17T00:12:50.836Z,100504.44
2022-08-17T00:15:21.076Z,100508.06
2022-08-17T00:17:51.003Z,100512.50
2022-08-17T00:20:19.856Z,100504.22
2022-08-17T00:22:50.595Z,100513.56
2022-08-17T00:25:20.083Z,100513.56
2022-08-17T00:27:47.262Z,100511.00
2022-08-17T00:30:14.486Z,100513.75
2022-08-17T00:33:15.478Z,100514.84
2022-08-17T00:35:32.809Z,100505.06
2022-08-17T00:37:59.742Z,100513.97
2022-08-17T00:40:27.066Z,100504.00
2022-08-17T00:43:27.763Z,100505.28
2022-08-17T00:45:55.266Z,100512.06
2022-08-17T00:48:29.928Z,100496.81
2022-08-17T00:51:07.434Z,100507.81
2022-08-17T00:53:39.895Z,100505.84
2022-08-17T00:56:13.078Z,100507.53
2022-08-17T00:58:41.009Z,100508.38
2022-08-17T01:01:10.167Z,100508.78
2022-08-17T01:03:39.141Z,100506.84
2022-08-17T01:06:07.968Z,100506.59
2022-08-17T01:08:38.466Z,100502.31
2022-08-17T01:11:07.527Z,100505.69
2022-08-17T01:13:41.801Z,100505.69
2022-08-17T01:16:31.038Z,100504.19
2022-08-17T01:19:16.345Z,100505.50
2022-08-17T01:22:17.549Z,100504.47
2022-08-17T01:24:50.762Z,100500.44
2022-08-17T01:27:20.693Z,100502.09
2022-08-17T01:29:52.178Z,100501.44
2022-08-17T01:32:20.170Z,100509.34
2022-08-17T01:34:50.664Z,100512.84
2022-08-17T01:37:21.045Z,100501.72
2022-08-17T01:39:57.971Z,100517.09
2022-08-17T01:42:39.929Z,100508.81
2022-08-17T01:45:18.828Z,100511.06
2022-08-17T01:47:45.870Z,100514.84
2022-08-17T01:50:29.452Z,100510.59
2022-08-17T01:53:09.867Z,100510.56
2022-08-17T01:55:47.990Z,100514.25
2022-08-17T01:58:15.198Z,100507.13
2022-08-17T02:00:46.625Z,100499.03
2022-08-17T02:03:28.917Z,100500.16
2022-08-17T02:05:56.498Z,100492.81
2022-08-17T02:08:38.896Z,100503.66
2022-08-17T02:11:15.734Z,100504.16
2022-08-17T02:13:44.818Z,100506.81
2022-08-17T02:16:12.435Z,100493.78
2022-08-17T02:18:39.488Z,100503.16
2022-08-17T02:21:07.689Z,100507.16
2022-08-17T02:23:41.279Z,100503.06
2022-08-17T02:26:08.313Z,100501.56
2022-08-17T02:28:35.545Z,100503.91
2022-08-17T02:31:10.009Z,100503.97
2022-08-17T02:33:43.162Z,100494.69
2022-08-17T02:36:12.602Z,100502.34
2022-08-17T02:38:41.087Z,100506.13
2022-08-17T02:41:08.704Z,100497.22
2022-08-17T02:43:35.859Z,100482.38
2022-08-17T02:46:02.803Z,100489.22
2022-08-17T02:48:31.369Z,100497.34
2022-08-17T02:51:00.239Z,100486.63
2022-08-17T02:53:35.585Z,100492.00
2022-08-17T02:56:03.675Z,100493.16
2022-08-17T02:58:34.726Z,100489.91
2022-08-17T03:01:08.363Z,100504.03
2022-08-17T03:03:37.608Z,100490.06
2022-08-17T03:06:06.111Z,100491.69
2022-08-17T03:08:34.572Z,100483.53
2022-08-17T03:11:01.604Z,100487.00
2022-08-17T03:13:28.629Z,100482.03
2022-08-17T03:15:55.662Z,100488.25
2022-08-17T03:18:24.918Z,100497.78
2022-08-17T03:20:59.388Z,100490.56
2022-08-17T03:23:27.951Z,100490.78
2022-08-17T03:25:56.806Z,100485.44
2022-08-17T03:28:26.227Z,100486.06
2022-08-17T03:30:53.261Z,100487.84
2022-08-17T03:33:20.621Z,100486.50
2022-08-17T03:35:48.221Z,100491.84
2022-08-17T03:38:17.155Z,100482.56
2022-08-17T03:40:57.287Z,100484.06
2022-08-17T03:43:30.763Z,100481.75
2022-08-17T03:46:28.917Z,100476.63
2022-08-17T03:49:26.163Z,100491.00
2022-08-17T03:52:13.873Z,100483.81
2022-08-17T03:55:01.465Z,100486.34
2022-08-17T03:57:29.120Z,100482.38
2022-08-17T03:59:56.224Z,100483.22
2022-08-17T04:02:30.383Z,100485.09
2022-08-17T04:04:58.128Z,100476.78
2022-08-17T04:07:28.655Z,100481.53
2022-08-17T04:09:55.781Z,100483.31
2022-08-17T04:12:24.068Z,100483.78
2022-08-17T04:14:53.783Z,100484.56
2022-08-17T04:17:25.410Z,100486.84
2022-08-17T04:19:53.512Z,100482.41
2022-08-17T04:22:33.121Z,100490.69
2022-08-17T04:25:18.199Z,100488.88
2022-08-17T04:27:45.148Z,100500.03
2022-08-17T04:30:12.608Z,100501.69
2022-08-17T04:33:03.494Z,100498.72
2022-08-17T04:35:47.834Z,100500.84
2022-08-17T04:38:19.188Z,100506.69
2022-08-17T04:41:05.040Z,100501.75
2022-08-17T04:43:34.011Z,100503.50
2022-08-17T04:46:16.877Z,100512.69
2022-08-17T04:48:50.391Z,100514.50
2022-08-17T04:51:25.366Z,100503.66
2022-08-17T04:53:58.844Z,100504.34
2022-08-17T04:56:27.299Z,100511.19
2022-08-17T04:58:58.775Z,100511.03
2022-08-17T05:01:29.518Z,100513.38
2022-08-17T05:04:00.219Z,100512.53
2022-08-17T05:06:46.688Z,100517.84
2022-08-17T05:09:13.782Z,100523.16
2022-08-17T05:11:44.815Z,100519.34
2022-08-17T05:14:12.726Z,100518.38
2022-08-17T05:16:39.685Z,100515.25
2022-08-17T05:19:06.778Z,100523.88
2022-08-17T05:21:33.714Z,100525.25
2022-08-17T05:24:00.793Z,100523.66
2022-08-17T05:26:32.966Z,100525.28
2022-08-17T05:29:03.499Z,100526.94
2022-08-17T05:31:31.427Z,100528.13
2022-08-17T05:33:58.886Z,100529.16
2022-08-17T05:36:42.331Z,100534.66
2022-08-17T05:39:16.299Z,100533.34
2022-08-17T05:41:44.868Z,100542.34
2022-08-17T05:44:11.838Z,100541.56
2022-08-17T05:46:43.982Z,100540.53
2022-08-17T05:49:12.997Z,100532.88
2022-08-17T05:52:18.790Z,100542.28
2022-08-17T05:55:21.106Z,100541.78
2022-08-17T05:58:15.247Z,100552.06
2022-08-17T06:00:56.669Z,100550.56
2022-08-17T06:03:53.275Z,100553.47
2022-08-17T06:06:56.534Z,100556.69
2022-08-17T06:09:49.751Z,100555.47
2022-08-17T06:12:47.854Z,100550.56
2022-08-17T06:16:02.610Z,100555.19
2022-08-17T06:18:57.666Z,100546.78
2022-08-17T06:21:30.482Z,100550.84
2022-08-17T06:24:34.144Z,100541.22
2022-08-17T06:27:36.861Z,100544.22
2022-08-17T06:30:12.034Z,100536.91
2022-08-17T06:32:50.981Z,100537.81
2022-08-17T06:35:34.153Z,100544.31
2022-08-17T06:38:37.030Z,100535.16
2022-08-17T06:41:19.332Z,100536.53
2022-08-17T06:44:07.630Z,100538.75
2022-08-17T06:46:48.481Z,100535.69
2022-08-17T06:49:28.638Z,100534.53
2022-08-17T06:52:07.815Z,100530.44
2022-08-17T06:54:50.020Z,100526.22
2022-08-17T06:57:25.583Z,100519.38
2022-08-17T07:00:10.338Z,100525.69
2022-08-17T07:02:55.664Z,100519.91
2022-08-17T07:05:32.935Z,100535.41
2022-08-17T07:08:06.140Z,100534.66
2022-08-17T07:10:53.108Z,100518.00
2022-08-17T07:13:51.167Z,100523.72
2022-08-17T07:16:33.568Z,100521.41
2022-08-17T07:19:00.601Z,100511.66
2022-08-17T07:22:07.849Z,100520.72
2022-08-17T07:24:58.354Z,100520.25
2022-08-17T07:27:35.543Z,100528.91
2022-08-17T07:30:31.832Z,100518.31
2022-08-17T07:33:27.849Z,100530.16
2022-08-17T07:35:58.095Z,100522.94
2022-08-17T07:38:34.097Z,100514.97
2022-08-17T07:41:05.093Z,100525.66
2022-08-17T07:43:37.969Z,100528.03
2022-08-17T07:46:51.562Z,100525.22
2022-08-17T07:49:41.127Z,100522.56
2022-08-17T07:52:50.716Z,100527.13
2022-08-17T07:55:31.828Z,100537.06
2022-08-17T07:58:00.109Z,100535.75
2022-08-17T08:00:31.495Z,100531.66
2022-08-17T08:03:21.826Z,100538.00
2022-08-17T08:06:01.980Z,100533.16
2022-08-17T08:08:42.234Z,100536.91
2022-08-17T08:11:15.356Z,100536.00
2022-08-17T08:13:45.547Z,100541.47
2022-08-17T08:16:29.104Z,100540.38
2022-08-17T08:19:01.482Z,100545.28
2022-08-17T08:21:59.013Z,100545.69
2022-08-17T08:25:08.440Z,100544.66
2022-08-17T08:28:16.679Z,100544.66
2022-08-17T08:30:57.683Z,100539.41
2022-08-17T08:34:09.277Z,100548.72
2022-08-17T08:37:32.870Z,100546.34
2022-08-17T08:40:35.444Z,100546.63
2022-08-17T08:43:29.296Z,100545.91
2022-08-17T08:46:15.845Z,100544.34
2022-08-17T08:49:12.500Z,100545.00
2022-08-17T08:51:57.943Z,100541.84
2022-08-17T08:54:35.646Z,100540.91
2022-08-17T08:57:26.952Z,100544.31
2022-08-17T09:00:21.612Z,100547.81
2022-08-17T09:03:20.144Z,100541.78
2022-08-17T09:06:37.353Z,100532.84
2022-08-17T09:09:29.185Z,100541.31
2022-08-17T09:12:13.946Z,100537.34
2022-08-17T09:15:12.300Z,100533.25
2022-08-17T09:18:08.584Z,100533.84
2022-08-17T09:21:03.350Z,100539.56
2022-08-17T09:24:02.296Z,100536.16
2022-08-17T09:26:39.403Z,100543.88
2022-08-17T09:29:13.682Z,100543.03
2022-08-17T09:32:03.579Z,100539.38
2022-08-17T09:34:39.636Z,100544.09
2022-08-17T09:37:48.480Z,100546.38
2022-08-17T09:40:50.648Z,100536.81
2022-08-17T09:43:59.331Z,100529.34
2022-08-17T09:46:34.647Z,100535.97
2022-08-17T09:49:28.488Z,100532.59
2022-08-17T09:52:03.274Z,100525.13
2022-08-17T09:54:39.473Z,100514.28
2022-08-17T09:57:45.505Z,100517.09
2022-08-17T10:00:17.345Z,100525.88
2022-08-17T10:03:22.049Z,100518.97
2022-08-17T10:06:21.340Z,100506.09
2022-08-17T10:09:18.410Z,100507.53
2022-08-17T10:12:20.556Z,100522.56
2022-08-17T10:15:17.845Z,100529.06
2022-08-17T10:18:10.111Z,100535.34
2022-08-17T10:20:52.532Z,100527.25
2022-08-17T10:23:46.859Z,100523.19
2022-08-17T10:26:21.193Z,100516.88
2022-08-17T10:28:55.998Z,100523.03
2022-08-17T10:31:40.532Z,100519.47
2022-08-17T10:34:54.855Z,100519.34
2022-08-17T10:37:59.193Z,100517.53
2022-08-17T10:40:43.372Z,100520.03
2022-08-17T10:43:57.843Z,100508.00
2022-08-17T10:47:15.290Z,100506.25
2022-08-17T10:49:49.542Z,100505.59
2022-08-17T10:52:42.415Z,100509.09
2022-08-17T10:55:16.580Z,100503.00
2022-08-17T10:57:47.080Z,100502.22
2022-08-17T11:00:39.829Z,100517.06
2022-08-17T11:03:26.487Z,100509.56
2022-08-17T11:06:12.671Z,100500.13
2022-08-17T11:09:14.097Z,100503.25
2022-08-17T11:12:06.119Z,100499.50
2022-08-17T11:15:10.055Z,100491.75
2022-08-17T11:18:01.523Z,100487.97
2022-08-17T11:21:20.697Z,100485.66
2022-08-17T11:24:37.900Z,100502.69
2022-08-17T11:27:27.675Z,100484.88
2022-08-17T11:30:01.775Z,100480.81
2022-08-17T11:32:47.783Z,100470.50
2022-08-17T11:35:21.604Z,100474.97
2022-08-17T11:38:29.290Z,100468.88
2022-08-17T11:41:30.029Z,100460.19
2022-08-17T11:44:24.309Z,100470.97
2022-08-17T11:47:35.055Z,100461.28
2022-08-17T11:51:07.331Z,100460.72
2022-08-17T11:53:39.759Z,100467.34
2022-08-17T11:56:11.952Z,100462.41
2022-08-17T11:58:41.481Z,100461.41
2022-08-17T12:01:15.988Z,100468.91
2022-08-17T12:03:54.049Z,100460.53
2022-08-17T12:06:49.123Z,100470.59
2022-08-17T12:09:17.768Z,100473.69
2022-08-17T12:12:12.081Z,100469.44
2022-08-17T12:17:40.434Z,100470.50
2022-08-17T12:20:37.964Z,100473.13
2022-08-17T12:23:24.347Z,100471.63
2022-08-17T12:26:06.197Z,100468.75
2022-08-17T12:28:39.161Z,100478.69
2022-08-17T12:31:16.511Z,100474.38
2022-08-17T12:33:45.976Z,100474.00
2022-08-17T12:36:16.670Z,100477.34
2022-08-17T12:39:14.247Z,100470.75
2022-08-17T12:41:51.980Z,100464.31
2022-08-17T12:44:35.901Z,100471.91
2022-08-17T12:47:22.346Z,100464.66
2022-08-17T12:49:53.477Z,100482.56
2022-08-17T12:52:28.397Z,100474.25
2022-08-17T12:55:06.914Z,100471.59
2022-08-17T12:57:46.576Z,100468.94
2022-08-17T13:00:22.348Z,100468.06
2022-08-17T13:03:07.890Z,100469.44
2022-08-17T13:05:54.558Z,100463.88
2022-08-17T13:08:30.706Z,100456.59
2022-08-17T13:11:03.348Z,100458.44
2022-08-17T13:13:38.945Z,100455.53
2022-08-17T13:16:10.261Z,100460.41
2022-08-17T13:18:39.949Z,100465.06
2022-08-17T13:21:30.295Z,100462.72
2022-08-17T13:24:13.698Z,100468.16
2022-08-17T13:26:47.554Z,100461.34
2022-08-17T13:29:39.562Z,100460.97
2022-08-17T13:32:09.631Z,100458.44
2022-08-17T13:35:12.245Z,100459.19
2022-08-17T13:37:36.774Z,100445.94
2022-08-17T13:40:10.108Z,100454.63
2022-08-17T13:42:51.879Z,100448.81
2022-08-17T13:45:36.571Z,100451.28
2022-08-17T13:48:16.208Z,100449.00
2022-08-17T13:51:13.669Z,100444.53
2022-08-17T13:53:40.623Z,100442.78
2022-08-17T13:56:31.786Z,100441.34
2022-08-17T13:59:52.965Z,100436.28
2022-08-17T14:02:19.534Z,100435.19
2022-08-17T14:04:48.024Z,100422.38
2022-08-17T14:07:15.930Z,100427.94
2022-08-17T14:09:57.846Z,100435.19
2022-08-17T14:12:28.186Z,100415.72
2022-08-17T14:14:56.411Z,100417.47
2022-08-17T14:17:24.552Z,100416.44
2022-08-17T14:19:53.246Z,100423.78
2022-08-17T14:22:30.413Z,100415.06
2022-08-17T14:24:59.197Z,100415.78
2022-08-17T14:27:28.098Z,100419.44
2022-08-17T14:29:56.378Z,100418.91
2022-08-17T14:32:31.292Z,100414.09
2022-08-17T14:35:00.774Z,100411.31
2022-08-17T14:37:29.269Z,100408.91
2022-08-17T14:40:02.711Z,100411.31
2022-08-17T14:42:33.371Z,100423.31
2022-08-17T14:45:05.965Z,100412.50
2022-08-17T14:47:34.795Z,100423.13
2022-08-17T14:50:03.125Z,100423.63
2022-08-17T14:52:37.313Z,100421.91
2022-08-17T14:55:05.314Z,100425.41
2022-08-17T14:57:34.350Z,100416.66
2022-08-17T15:00:02.891Z,100419.06
2022-08-17T15:02:30.929Z,100425.09
2022-08-17T15:05:06.212Z,100411.00
2022-08-17T15:07:33.262Z,100420.66
2022-08-17T15:10:01.583Z,100417.41
2022-08-17T15:12:33.286Z,100410.34
2022-08-17T15:15:06.231Z,100401.94
2022-08-17T15:17:44.757Z,100404.38
2022-08-17T15:20:23.700Z,100391.75
2022-08-17T15:22:55.346Z,100386.59
2022-08-17T15:25:24.283Z,100387.88
2022-08-17T15:27:51.688Z,100393.94
2022-08-17T15:30:19.178Z,100391.16
2022-08-17T15:32:51.348Z,100391.41
2022-08-17T15:35:28.305Z,100384.41
2022-08-17T15:37:58.390Z,100379.38
2022-08-17T15:40:25.400Z,100379.28
2022-08-17T15:42:52.910Z,100387.28
2022-08-17T15:45:24.821Z,100380.38
2022-08-17T15:47:52.820Z,100386.09
2022-08-17T15:50:19.969Z,100380.69
2022-08-17T15:52:47.534Z,100378.16
2022-08-17T15:55:16.142Z,100371.75
2022-08-17T15:57:44.107Z,100374.53
2022-08-17T16:00:11.416Z,100373.19
2022-08-17T16:03:44.961Z,100373.44
2022-08-17T16:05:35.195Z,100379.84
2022-08-17T16:08:02.311Z,100369.81
2022-08-17T16:10:34.770Z,100367.91
2022-08-17T16:13:04.061Z,100365.81
2022-08-17T16:15:39.435Z,100363.88
2022-08-17T16:18:06.450Z,100361.06
2022-08-17T16:20:51.007Z,100361.41
2022-08-17T16:23:20.197Z,100361.44
2022-08-17T16:25:53.085Z,100361.22
2022-08-17T16:28:23.221Z,100360.72
2022-08-17T16:31:03.757Z,100368.75
2022-08-17T16:33:31.375Z,100365.53
2022-08-17T16:35:58.583Z,100376.78
2022-08-17T16:38:25.548Z,100378.59
2022-08-17T16:40:52.582Z,100377.84
2022-08-17T16:43:20.094Z,100380.19
2022-08-17T16:45:51.813Z,100379.03
2022-08-17T16:48:19.717Z,100381.47
2022-08-17T16:51:03.041Z,100381.47
2022-08-17T16:53:30.697Z,100375.06
2022-08-17T16:55:57.783Z,100378.44
2022-08-17T16:58:24.810Z,100379.19
2022-08-17T17:00:51.825Z,100374.91
2022-08-17T17:03:24.973Z,100387.03
2022-08-17T17:06:15.611Z,100380.59
2022-08-17T17:09:24.781Z,100383.56
2022-08-17T17:11:59.054Z,100389.59
2022-08-17T17:14:30.566Z,100387.84
2022-08-17T17:17:06.587Z,100376.53
2022-08-17T17:19:59.281Z,100389.22
2022-08-17T17:23:08.823Z,100389.97
2022-08-17T17:25:55.329Z,100390.84
2022-08-17T17:29:04.903Z,100392.88
2022-08-17T17:32:05.798Z,100387.03
2022-08-17T17:34:35.003Z,100399.09
2022-08-17T17:37:15.252Z,100383.03
2022-08-17T17:39:53.001Z,100390.00
2022-08-17T17:42:25.025Z,100392.53
2022-08-17T17:45:12.740Z,100404.50
2022-08-17T17:47:40.138Z,100410.69
2022-08-17T17:50:08.473Z,100407.84
2022-08-17T17:53:00.916Z,100412.38
2022-08-17T17:55:42.694Z,100412.13
2022-08-17T17:58:36.121Z,100421.69
2022-08-17T18:01:59.241Z,100407.34
2022-08-17T18:04:40.735Z,100410.63
2022-08-17T18:07:18.095Z,100408.84
2022-08-17T18:10:29.872Z,100403.66
2022-08-17T18:13:21.299Z,100410.22
2022-08-17T18:15:54.396Z,100415.28
2022-08-17T18:18:39.079Z,100417.22
2022-08-17T18:21:16.775Z,100415.66
2022-08-17T18:24:06.318Z,100415.53
2022-08-17T18:26:33.230Z,100413.50
2022-08-17T18:29:02.211Z,100423.63
2022-08-17T18:31:29.492Z,100417.09
2022-08-17T18:37:16.111Z,100420.97
2022-08-17T18:39:46.489Z,100421.94
2022-08-17T18:42:26.824Z,100422.25
2022-08-17T18:44:55.486Z,100420.94
2022-08-17T18:47:29.518Z,100428.97
2022-08-17T18:50:20.331Z,100427.63
2022-08-17T18:52:56.058Z,100428.22
2022-08-17T18:55:27.750Z,100431.09
2022-08-17T18:58:15.133Z,100427.81
2022-08-17T19:00:46.163Z,100436.44
2022-08-17T19:03:16.111Z,100438.91
2022-08-17T19:06:24.963Z,100428.41
2022-08-17T19:08:51.910Z,100428.75
2022-08-17T19:11:34.435Z,100426.94
2022-08-17T19:14:08.861Z,100427.94
2022-08-17T19:16:53.562Z,100423.09
2022-08-17T19:19:56.444Z,100429.13
2022-08-17T19:23:16.924Z,100426.09
2022-08-17T19:25:50.033Z,100437.06
2022-08-17T19:28:48.494Z,100436.75
2022-08-17T19:31:23.483Z,100434.50
2022-08-17T19:33:51.081Z,100442.50
2022-08-17T19:36:26.153Z,100443.66
2022-08-17T19:39:11.212Z,100451.69
2022-08-17T19:41:47.973Z,100476.72
2022-08-17T19:44:32.908Z,100483.63
2022-08-17T19:47:36.177Z,100480.72
2022-08-17T19:50:22.100Z,100472.69
2022-08-17T19:53:41.971Z,100465.09
2022-08-17T19:56:31.595Z,100465.72
2022-08-17T19:59:49.411Z,100468.41
2022-08-17T20:02:50.273Z,100475.31
2022-08-17T20:05:24.721Z,100476.19
2022-08-17T20:08:04.042Z,100499.38
2022-08-17T20:10:54.439Z,100488.00
2022-08-17T20:13:34.024Z,100502.88
2022-08-17T20:16:02.643Z,100500.22
2022-08-17T20:18:46.122Z,100500.25
2022-08-17T20:21:42.714Z,100501.75
2022-08-17T20:24:30.945Z,100504.75
2022-08-17T20:27:09.634Z,100509.88
2022-08-17T20:29:55.086Z,100510.31
2022-08-17T20:32:56.648Z,100510.56
2022-08-17T20:35:36.815Z,100506.72
2022-08-17T20:38:34.013Z,100512.03
2022-08-17T20:41:01.393Z,100520.06
2022-08-17T20:43:34.285Z,100516.50
2022-08-17T20:46:23.529Z,100518.59
2022-08-17T20:48:56.935Z,100511.38
2022-08-17T20:51:43.013Z,100515.78
2022-08-17T20:54:46.001Z,100517.06
2022-08-17T20:57:39.110Z,100519.00
2022-08-17T21:00:41.193Z,100517.78
2022-08-17T21:03:28.572Z,100527.34
2022-08-17T21:06:18.787Z,100542.16
2022-08-17T21:08:57.591Z,100541.72
2022-08-17T21:12:00.065Z,100537.25
2022-08-17T21:14:44.745Z,100550.16
2022-08-17T21:17:39.715Z,100556.22
2022-08-17T21:20:33.827Z,100546.66
2022-08-17T21:23:10.217Z,100554.50
2022-08-17T21:26:04.506Z,100564.84
2022-08-17T21:29:30.451Z,100548.13
2022-08-17T21:31:59.582Z,100554.66
2022-08-17T21:34:43.041Z,100551.03
2022-08-17T21:37:22.296Z,100547.00
2022-08-17T21:40:00.761Z,100561.75
2022-08-17T21:42:34.662Z,100566.38
2022-08-17T21:45:27.160Z,100562.50
2022-08-17T21:48:20.868Z,100556.91
2022-08-17T21:51:19.210Z,100549.88
2022-08-17T21:53:57.181Z,100554.91
2022-08-17T21:56:33.460Z,100556.13
2022-08-17T21:59:05.322Z,100555.09
2022-08-17T22:01:37.050Z,100554.03
2022-08-17T22:04:11.378Z,100570.09
2022-08-17T22:06:56.978Z,100564.53
2022-08-17T22:09:31.995Z,100581.00
2022-08-17T22:12:11.228Z,100580.72
2022-08-17T22:14:52.107Z,100569.88
2022-08-17T22:17:36.463Z,100570.47
2022-08-17T22:20:14.874Z,100575.84
2022-08-17T22:23:20.151Z,100579.97
2022-08-17T22:26:03.644Z,100571.47
2022-08-17T22:28:49.054Z,100578.34
2022-08-17T22:31:26.611Z,100574.22
2022-08-17T22:33:59.869Z,100588.16
2022-08-17T22:36:29.010Z,100588.06
2022-08-17T22:39:07.369Z,100594.13
2022-08-17T22:41:57.077Z,100581.59
2022-08-17T22:44:29.444Z,100599.81
2022-08-17T22:47:29.346Z,100605.44
2022-08-17T22:50:01.012Z,100607.69
2022-08-17T22:52:35.593Z,100611.22
2022-08-17T22:55:45.012Z,100615.16
2022-08-17T22:58:35.689Z,100613.19
2022-08-17T23:01:23.225Z,100607.63
2022-08-17T23:04:36.601Z,100618.69
2022-08-17T23:07:03.582Z,100612.09
2022-08-17T23:09:30.470Z,100624.94
2022-08-17T23:11:58.705Z,100623.44
2022-08-17T23:14:31.926Z,100623.31
2022-08-17T23:16:59.483Z,100622.66
2022-08-17T23:19:28.397Z,100615.19
2022-08-17T23:21:57.631Z,100615.97
2022-08-17T23:24:28.737Z,100609.31
2022-08-17T23:26:58.284Z,100608.84
2022-08-17T23:29:29.399Z,100602.59
2022-08-17T23:31:59.647Z,100610.34
2022-08-17T23:34:28.074Z,100617.69
2022-08-17T23:36:55.898Z,100616.00
2022-08-17T23:39:27.455Z,100604.22
2022-08-17T23:42:00.282Z,100608.44
2022-08-17T23:44:28.858Z,100602.19
2022-08-17T23:46:55.930Z,100602.38
2022-08-17T23:49:25.072Z,100609.75
2022-08-17T23:51:54.594Z,100606.91
2022-08-17T23:54:46.550Z,100608.13
2022-08-17T23:57:20.870Z,100610.69
